createdAt,value
2019-02-02T00:02:04.337Z,37.77
2019-02-02T00:07:08.083Z,36.43
2019-02-02T00:12:11.850Z,35.90
2019-02-02T00:17:15.542Z,35.93
2019-02-02T00:22:19.218Z,36.30
2019-02-02T00:27:23.298Z,37.63
2019-02-02T00:32:27.343Z,37.07
2019-02-02T00:37:31.040Z,35.33
2019-02-02T00:42:34.914Z,36.13
2019-02-02T00:47:38.698Z,36.87
2019-02-02T00:52:42.465Z,39.03
2019-02-02T00:57:53.632Z,39.23
2019-02-02T01:02:52.210Z,39.37
2019-02-02T01:07:56.261Z,40.90
2019-02-02T01:13:00.301Z,40.53
2019-02-02T01:18:04.556Z,42.10
2019-02-02T01:23:08.417Z,43.50
2019-02-02T01:28:12.170Z,44.33
2019-02-02T01:33:15.942Z,46.37
2019-02-02T01:38:19.626Z,46.67
2019-02-02T01:43:23.329Z,48.13
2019-02-02T01:48:27.110Z,49.73
2019-02-02T01:53:30.817Z,51.53
2019-02-02T01:58:34.572Z,52.67
2019-02-02T02:03:38.305Z,51.97
2019-02-02T02:08:42.339Z,54.07
2019-02-02T02:13:46.064Z,54.03
2019-02-02T02:18:49.755Z,55.13
2019-02-02T02:23:53.585Z,55.40
2019-02-02T02:28:57.299Z,56.70
2019-02-02T02:34:01.010Z,59.67
2019-02-02T02:39:07.292Z,58.37
2019-02-02T02:44:11.179Z,59.87
2019-02-02T02:49:14.893Z,60.17
2019-02-02T02:54:18.892Z,61.83
2019-02-02T02:59:22.578Z,58.57
2019-02-02T03:04:26.299Z,57.97
2019-02-02T03:09:30.011Z,63.27
2019-02-02T03:14:33.726Z,58.27
2019-02-02T03:19:37.494Z,61.10
2019-02-02T03:24:41.259Z,58.23
2019-02-02T03:29:44.946Z,62.57
2019-02-02T03:34:48.629Z,59.50
2019-02-02T03:39:52.594Z,60.10
2019-02-02T03:44:56.301Z,59.13
2019-02-02T03:50:00.021Z,57.83
2019-02-02T03:55:04.486Z,56.83
2019-02-02T04:00:11.262Z,60.10
2019-02-02T04:05:20.518Z,60.63
2019-02-02T04:10:24.374Z,59.33
2019-02-02T04:15:28.425Z,58.47
2019-02-02T04:20:32.406Z,57.53
2019-02-02T04:25:36.234Z,56.90
2019-02-02T04:30:40.061Z,56.30
2019-02-02T04:35:43.758Z,55.73
2019-02-02T04:40:47.447Z,55.10
2019-02-02T04:45:51.158Z,54.53
2019-02-02T04:50:54.867Z,55.37
2019-02-02T04:55:58.858Z,54.33
2019-02-02T05:01:02.566Z,54.30
2019-02-02T05:06:06.251Z,56.07
2019-02-02T05:11:09.961Z,53.77
2019-02-02T05:16:13.673Z,57.00
2019-02-02T05:21:17.370Z,55.30
2019-02-02T05:26:21.394Z,54.63
2019-02-02T05:31:26.278Z,56.33
2019-02-02T05:36:29.989Z,56.23
2019-02-02T05:41:33.705Z,53.90
2019-02-02T05:46:37.717Z,53.43
2019-02-02T05:51:41.403Z,53.87
2019-02-02T05:56:45.350Z,51.03
2019-02-02T06:01:49.038Z,51.60
2019-02-02T06:06:52.726Z,52.43
2019-02-02T06:11:56.421Z,55.07
2019-02-02T06:17:00.130Z,51.27
2019-02-02T06:22:03.897Z,49.23
2019-02-02T06:27:07.582Z,49.77
2019-02-02T06:32:13.276Z,49.07
2019-02-02T06:37:16.973Z,48.77
2019-02-02T06:42:20.666Z,47.30
2019-02-02T06:47:24.354Z,50.17
2019-02-02T06:52:28.038Z,48.57
2019-02-02T06:57:32.070Z,48.03
2019-02-02T07:02:35.769Z,47.57
2019-02-02T07:07:39.826Z,48.97
2019-02-02T07:12:43.778Z,47.63
2019-02-02T07:17:48.417Z,47.87
2019-02-02T07:22:52.418Z,48.37
2019-02-02T07:27:56.706Z,48.20
2019-02-02T07:33:00.428Z,48.17
2019-02-02T07:38:04.394Z,51.23
2019-02-02T07:43:08.075Z,48.33
2019-02-02T07:48:12.213Z,49.60
2019-02-02T07:53:15.922Z,51.10
2019-02-02T07:58:19.609Z,49.13
2019-02-02T08:03:23.546Z,52.47
2019-02-02T08:08:27.610Z,51.03
2019-02-02T08:13:31.357Z,48.63
2019-02-02T08:18:35.139Z,48.63
2019-02-02T08:23:38.930Z,49.90
2019-02-02T08:28:42.673Z,49.50
2019-02-02T08:33:46.417Z,50.43
2019-02-02T08:38:50.114Z,48.60
2019-02-02T08:43:53.895Z,47.83
2019-02-02T08:48:57.584Z,48.60
2019-02-02T08:54:03.529Z,47.53
2019-02-02T08:59:07.081Z,46.60
2019-02-02T09:04:10.853Z,48.77
2019-02-02T09:09:14.878Z,51.47
2019-02-02T09:14:18.904Z,51.03
2019-02-02T09:19:23.631Z,49.67
2019-02-02T09:24:27.588Z,54.10
2019-02-02T09:29:31.317Z,54.27
2019-02-02T09:34:35.212Z,54.57
2019-02-02T09:39:38.958Z,53.07
2019-02-02T09:44:42.658Z,52.93
2019-02-02T09:49:49.450Z,51.00
2019-02-02T09:54:53.238Z,54.20
2019-02-02T09:59:56.936Z,53.63
2019-02-02T10:05:00.622Z,51.43
2019-02-02T10:10:05.794Z,54.60
2019-02-02T10:15:09.842Z,58.40
2019-02-02T10:20:15.872Z,55.23
2019-02-02T10:25:21.935Z,59.67
2019-02-02T10:30:44.642Z,60.13
2019-02-02T10:35:48.658Z,59.23
2019-02-02T10:40:52.343Z,60.90
2019-02-02T10:45:56.057Z,61.50
2019-02-02T10:51:00.047Z,58.43
2019-02-02T10:56:03.796Z,58.20
2019-02-02T11:01:07.561Z,60.10
2019-02-02T11:06:11.327Z,56.90
2019-02-02T11:11:15.056Z,59.17
2019-02-02T11:16:18.833Z,58.07
2019-02-02T11:21:22.566Z,58.57
2019-02-02T11:26:26.475Z,56.90
2019-02-02T11:31:30.198Z,55.50
2019-02-02T11:36:33.885Z,58.33
2019-02-02T11:41:37.578Z,56.37
2019-02-02T11:46:41.284Z,58.30
2019-02-02T11:51:44.991Z,56.83
2019-02-02T11:56:48.682Z,57.17
2019-02-02T12:01:52.373Z,55.37
2019-02-02T12:06:56.057Z,54.27
2019-02-02T12:12:00.086Z,53.47
2019-02-02T12:17:03.843Z,55.00
2019-02-02T12:22:07.837Z,52.50
2019-02-02T12:27:11.592Z,51.00
2019-02-02T12:32:25.890Z,56.07
2019-02-02T12:37:20.771Z,56.40
2019-02-02T12:42:24.459Z,59.10
2019-02-02T12:47:28.206Z,59.67
2019-02-02T12:52:31.892Z,57.87
2019-02-02T12:57:35.665Z,62.10
2019-02-02T13:02:39.341Z,56.03
2019-02-02T13:07:43.169Z,54.57
2019-02-02T13:12:46.858Z,56.60
2019-02-02T13:17:50.654Z,53.00
2019-02-02T13:22:54.518Z,56.03
2019-02-02T13:27:58.198Z,53.97
2019-02-02T13:33:02.197Z,55.57
2019-02-02T13:38:06.472Z,61.27
2019-02-02T13:43:10.474Z,66.33
2019-02-02T13:48:14.153Z,58.90
2019-02-02T13:53:17.838Z,53.87
2019-02-02T13:58:21.605Z,97.30
2019-02-02T14:03:25.373Z,71.07
2019-02-02T14:08:29.058Z,70.13
2019-02-02T14:13:32.806Z,65.87
2019-02-02T14:18:36.815Z,84.73
2019-02-02T14:23:40.505Z,68.80
2019-02-02T14:28:44.222Z,49.70
2019-02-02T14:33:47.931Z,50.10
2019-02-02T14:38:51.606Z,50.43
2019-02-02T14:43:55.902Z,49.97
2019-02-02T14:48:59.769Z,50.53
2019-02-02T14:54:03.718Z,47.43
2019-02-02T14:59:07.417Z,44.67
2019-02-02T15:04:11.097Z,44.10
2019-02-02T15:09:14.814Z,43.50
2019-02-02T15:14:18.513Z,43.23
2019-02-02T15:19:22.225Z,42.20
2019-02-02T15:24:25.919Z,40.33
2019-02-02T15:29:29.595Z,41.20
2019-02-02T15:34:33.389Z,43.47
2019-02-02T15:39:40.576Z,42.10
2019-02-02T15:44:44.146Z,41.73
2019-02-02T15:49:55.462Z,40.03
2019-02-02T15:54:59.178Z,41.30
2019-02-02T16:00:02.918Z,42.40
2019-02-02T16:05:09.585Z,44.03
2019-02-02T16:10:18.938Z,44.60
2019-02-02T16:15:22.632Z,43.30
2019-02-02T16:20:28.872Z,47.37
2019-02-02T16:25:32.771Z,48.07
2019-02-02T16:30:36.561Z,46.40
2019-02-02T16:35:40.524Z,44.77
2019-02-02T16:40:44.213Z,47.03
2019-02-02T16:45:47.982Z,45.97
2019-02-02T16:50:51.677Z,44.70
2019-02-02T16:55:55.490Z,44.57
2019-02-02T17:00:59.253Z,46.00
2019-02-02T17:06:03.288Z,47.53
2019-02-02T17:11:07.050Z,41.57
2019-02-02T17:16:10.745Z,40.30
2019-02-02T17:21:14.426Z,40.73
2019-02-02T17:26:18.291Z,38.97
2019-02-02T17:31:22.013Z,39.17
2019-02-02T17:36:25.772Z,41.97
2019-02-02T17:41:30.055Z,45.10
2019-02-02T17:46:33.995Z,36.47
2019-02-02T17:51:37.686Z,35.80
2019-02-02T17:56:41.380Z,38.03
2019-02-02T18:01:45.362Z,35.00
2019-02-02T18:06:49.078Z,35.67
2019-02-02T18:11:52.779Z,35.20
2019-02-02T18:16:57.760Z,34.97
2019-02-02T18:22:01.833Z,32.07
2019-02-02T18:27:05.910Z,33.80
2019-02-02T18:32:13.232Z,35.17
2019-02-02T18:37:15.133Z,34.40
2019-02-02T18:42:18.878Z,33.63
2019-02-02T18:47:22.758Z,36.57
2019-02-02T18:52:26.698Z,31.40
2019-02-02T18:57:32.016Z,33.27
2019-02-02T19:02:35.806Z,33.23
2019-02-02T19:07:41.293Z,33.70
2019-02-02T19:12:47.472Z,33.60
2019-02-02T19:17:51.234Z,32.60
2019-02-02T19:22:57.210Z,32.00
2019-02-02T19:28:01.268Z,31.13
2019-02-02T19:33:07.238Z,33.83
2019-02-02T19:38:13.689Z,31.83
2019-02-02T19:43:17.729Z,33.70
2019-02-02T19:48:21.422Z,30.53
2019-02-02T19:53:25.149Z,33.27
2019-02-02T19:58:28.966Z,31.23
2019-02-02T20:03:32.652Z,32.93
2019-02-02T20:08:37.620Z,33.30
2019-02-02T20:13:42.049Z,33.33
2019-02-02T20:18:48.114Z,32.33
2019-02-02T20:23:53.356Z,32.30
2019-02-02T20:29:05.260Z,31.83
2019-02-02T20:34:09.632Z,33.10
2019-02-02T20:39:14.039Z,32.50
2019-02-02T20:44:18.910Z,32.13
2019-02-02T20:49:24.038Z,32.53
2019-02-02T20:54:27.918Z,30.23
2019-02-02T20:59:32.390Z,29.47
2019-02-02T21:04:37.377Z,31.03
2019-02-02T21:09:41.935Z,29.30
2019-02-02T21:14:46.460Z,29.20
2019-02-02T21:19:53.368Z,29.97
2019-02-02T21:24:57.443Z,28.83
2019-02-02T21:30:02.606Z,28.17
2019-02-02T21:35:07.780Z,26.93
2019-02-02T21:40:15.941Z,25.60
2019-02-02T21:45:20.047Z,26.20
2019-02-02T21:50:26.017Z,25.37
2019-02-02T21:55:30.703Z,23.43
2019-02-02T22:00:39.831Z,23.33
2019-02-02T22:05:44.817Z,22.63
2019-02-02T22:10:49.882Z,23.17
2019-02-02T22:15:53.997Z,21.70
2019-02-02T22:20:57.769Z,22.83
2019-02-02T22:26:01.642Z,21.27
2019-02-02T22:31:05.491Z,22.87
2019-02-02T22:36:09.161Z,22.10
2019-02-02T22:41:12.850Z,20.97
2019-02-02T22:46:17.014Z,21.13
2019-02-02T22:51:20.697Z,20.87
2019-02-02T22:56:24.389Z,20.57
2019-02-02T23:01:32.703Z,19.87
2019-02-02T23:07:10.711Z,20.20
2019-02-02T23:12:27.062Z,19.77
2019-02-02T23:17:30.754Z,20.13
2019-02-02T23:22:34.617Z,18.70
2019-02-02T23:27:38.298Z,17.73
2019-02-02T23:32:41.982Z,16.87
2019-02-02T23:37:45.774Z,16.63
2019-02-02T23:42:49.469Z,15.47
2019-02-02T23:47:53.227Z,15.63
2019-02-02T23:52:56.909Z,14.30
2019-02-02T23:58:00.758Z,14.07
